Nissos Mykonos — SYJZ — position and weather

sailwx.info

Track history (hours):
 
Tides and Currents Weather Stations Pressure Air Temp Water Temp Dewpoint Dewpoint Depression Visibility Wind Speed Wind Dir Waves Ship Positions

Nissos Mykonos

Last reported at 2016-Feb-13 22:32 UTC. Time now 2016-Feb-14 08:09 UTC.
Position N 39°59' E 024°57'.

Length 141 m; draft 5.2 m.

Type: Passenger vessel. MMSI: 240389000.

Date/timePositionNaut miles runAvg speedWind from/ knotsBaromVisibWave heightAir tempDewpointWater temp
2016-Feb-13 22:32N 39°59' E 024°57'2121.2
2016-Feb-13 21:33N 40°17' E 024°44'2221.6
2016-Feb-13 20:33N 40°36' E 024°31'2120.4
2016-Feb-13 19:33N 40°56' E 024°25'0 0.1
2016-Feb-13 18:34N 40°56' E 024°25'0 0.0
2016-Feb-13 17:34N 40°56' E 024°25'5 5.4
2016-Feb-13 16:34N 40°51' E 024°25'2221.8
2016-Feb-13 15:34N 40°30' E 024°35'2221.8
2016-Feb-13 14:33N 40°11' E 024°49'161 9.4
2016-Feb-12 21:26N 37°34' E 025°37'1517.3
2016-Feb-12 20:34N 37°28' E 025°19'1816.2
2016-Feb-12 19:26N 37°26' E 024°57'6321.8
2016-Feb-12 16:34N 37°44' E 023°41'1312.8
2016-Feb-12 15:34N 37°57' E 023°38'0 0.0
2016-Feb-12 14:33N 37°57' E 023°38'0 0.0
2016-Feb-12 13:34N 37°57' E 023°38'0 0.0
2016-Feb-12 12:34N 37°57' E 023°38'0 0.0
2016-Feb-12 11:34N 37°57' E 023°38'0 0.0
2016-Feb-12 10:34N 37°57' E 023°38'0 0.0
2016-Feb-12 09:34N 37°57' E 023°38'0 0.0
2016-Feb-12 08:34N 37°57' E 023°38'0 0.0
2016-Feb-12 07:34N 37°57' E 023°38'0 0.0
2016-Feb-12 06:34N 37°57' E 023°38'0 0.0
2016-Feb-12 05:34N 37°57' E 023°38'0 0.0
2016-Feb-12 04:34N 37°57' E 023°38'0 0.0
2016-Feb-12 03:33N 37°57' E 023°38'0 0.0
2016-Feb-12 02:34N 37°57' E 023°38'0 0.0
2016-Feb-12 01:34N 37°57' E 023°38'6 6.3
2016-Feb-12 00:34N 37°50' E 023°40'2323.1
2016-Feb-11 23:33N 37°36' E 024°03'3323.6
2016-Feb-11 22:09N 37°31' E 024°44'1114.9
2016-Feb-11 21:24N 37°26' E 024°57'1821.4
2016-Feb-11 20:34N 37°28' E 025°19'1818.1
2016-Feb-11 19:33N 37°31' E 025°42'145 9.5
2016-Feb-11 04:22N 39°52' E 025°03'1721.0
2016-Feb-11 03:33N 40°05' E 024°47'2323.6
2016-Feb-11 02:33N 40°26' E 024°34'2423.8
2016-Feb-11 01:34N 40°49' E 024°26'7 7.3
2016-Feb-11 00:33N 40°56' E 024°25'0 0.0
2016-Feb-10 23:33N 40°56' E 024°25'0 0.0
2016-Feb-10 22:04N 40°56' E 024°25'0 0.0
2016-Feb-10 21:33N 40°56' E 024°25'0 0.0
2016-Feb-10 20:34N 40°56' E 024°25'0 0.0
2016-Feb-10 19:34N 40°56' E 024°25'0 0.0
2016-Feb-10 18:30N 40°56' E 024°25'0 0.0
2016-Feb-10 17:34N 40°56' E 024°25'1616.4
2016-Feb-10 16:34N 40°40' E 024°29'2221.5
2016-Feb-10 15:34N 40°21' E 024°43'2321.5
2016-Feb-10 14:30N 40°01' E 024°56'1010.7
2016-Feb-10 13:33N 39°52' E 025°02'147 9.0
2016-Feb-09 21:05N 37°30' E 025°55'1421.6
2016-Feb-09 20:27N 37°31' E 025°38'1517.2
2016-Feb-09 19:34N 37°28' E 025°19'1212.3
2016-Feb-09 18:34N 37°27' E 025°04'1110.7
2016-Feb-09 17:33N 37°32' E 024°52'5121.2
2016-Feb-09 15:08N 37°38' E 023°48'1221.1
2016-Feb-09 14:34N 37°48' E 023°38'9 8.8
2016-Feb-09 13:34N 37°57' E 023°38'0 0.0
2016-Feb-09 12:33N 37°57' E 023°38'0 0.0
2016-Feb-09 11:33N 37°57' E 023°38'0 0.0
2016-Feb-09 10:34N 37°57' E 023°38'0 0.0
2016-Feb-09 09:34N 37°57' E 023°38'0 0.0
2016-Feb-09 08:34N 37°57' E 023°38'0 0.0
2016-Feb-09 05:34N 37°57' E 023°38'0 0.0
2016-Feb-09 04:34N 37°57' E 023°38'0 0.0
2016-Feb-09 03:34N 37°57' E 023°38'0 0.0
2016-Feb-09 02:34N 37°57' E 023°38'0 0.0
2016-Feb-09 01:34N 37°57' E 023°38'0 0.0
2016-Feb-09 00:34N 37°57' E 023°38'0 0.0
2016-Feb-08 23:33N 37°57' E 023°38'0 0.0
2016-Feb-08 22:34N 37°57' E 023°38'0 0.0
2016-Feb-08 21:33N 37°57' E 023°38'1413.9
2016-Feb-08 20:34N 37°44' E 023°44'4923.8
2016-Feb-08 18:31N 37°31' E 024°44'1211.8
2016-Feb-08 17:29N 37°26' E 024°58'1718.7
2016-Feb-08 16:33N 37°28' E 025°19'1717.2
2016-Feb-08 15:33N 37°34' E 025°40'153 8.8
2016-Feb-07 22:16N 40°02' E 024°54'1622.0
2016-Feb-07 21:34N 40°16' E 024°44'2222.1
2016-Feb-07 20:33N 40°36' E 024°31'2120.3
2016-Feb-07 19:32N 40°56' E 024°25'0 0.0
2016-Feb-07 18:33N 40°56' E 024°25'0 0.1
2016-Feb-07 17:33N 40°56' E 024°25'2423.8
2016-Feb-07 16:34N 40°33' E 024°33'2625.1
2016-Feb-07 15:32N 40°11' E 024°49'15910.5
2016-Feb-07 00:28N 37°35' E 025°32'1314.6
2016-Feb-06 23:33N 37°28' E 025°19'1716.6
2016-Feb-06 22:33N 37°27' E 024°58'5622.8
2016-Feb-06 20:05N 37°38' E 023°48'1223.5
2016-Feb-06 19:34N 37°48' E 023°38'9 8.6
2016-Feb-06 18:34N 37°57' E 023°38'0 0.0
2016-Feb-06 17:34N 37°57' E 023°38'0 0.0
2016-Feb-06 16:34N 37°57' E 023°38'0 0.0
2016-Feb-06 15:33N 37°57' E 023°38'0 0.0
2016-Feb-06 14:34N 37°57' E 023°38'0 0.0
2016-Feb-06 13:33N 37°57' E 023°38'0 0.0
2016-Feb-06 12:34N 37°57' E 023°38'0 0.0
2016-Feb-06 11:33N 37°57' E 023°38'0 0.0
2016-Feb-06 10:33N 37°57' E 023°38'0 0.0
2016-Feb-06 09:33N 37°57' E 023°38'0 0.0
2016-Feb-06 08:33N 37°57' E 023°38'0 0.0
2016-Feb-06 07:34N 37°57' E 023°38'0 0.0
2016-Feb-06 06:34N 37°57' E 023°38'0 0.0
2016-Feb-06 05:33N 37°57' E 023°38'0 0.0
2016-Feb-06 04:34N 37°57' E 023°38'0 0.0
2016-Feb-06 03:33N 37°57' E 023°38'0 0.0
2016-Feb-06 02:33N 37°57' E 023°38'0 0.0
2016-Feb-06 01:34N 37°57' E 023°38'0 0.0
2016-Feb-06 00:34N 37°57' E 023°38'0 0.0
2016-Feb-05 23:33N 37°57' E 023°38'0 0.0
2016-Feb-05 22:33N 37°57' E 023°38'0 0.0
2016-Feb-05 21:33N 37°57' E 023°38'0 0.0
2016-Feb-05 20:33N 37°57' E 023°38'0 0.0
2016-Feb-05 19:34N 37°57' E 023°38'0 0.0
2016-Feb-05 18:33N 37°57' E 023°38'0 0.0
2016-Feb-05 17:33N 37°57' E 023°38'0 0.0
2016-Feb-05 16:33N 37°57' E 023°38'0 0.0
2016-Feb-05 15:34N 37°57' E 023°38'0 0.0
2016-Feb-05 14:34N 37°57' E 023°38'0 0.0
2016-Feb-05 13:34N 37°57' E 023°38'0 0.0
2016-Feb-05 12:33N 37°57' E 023°38'0 0.0
2016-Feb-05 11:34N 37°57' E 023°38'0 0.0
2016-Feb-05 10:34N 37°57' E 023°38'0 0.0
2016-Feb-05 09:34N 37°57' E 023°38'0 0.0
2016-Feb-05 08:34N 37°57' E 023°38'0 0.0
2016-Feb-05 07:33N 37°57' E 023°38'0 0.0
2016-Feb-05 06:34N 37°57' E 023°38'0 0.0
2016-Feb-05 05:33N 37°57' E 023°38'0 0.0
2016-Feb-05 04:34N 37°57' E 023°38'0 0.0
2016-Feb-05 03:34N 37°57' E 023°38'0 0.0
2016-Feb-05 02:34N 37°57' E 023°38'0 0.0
2016-Feb-05 01:33N 37°57' E 023°38'0 0.0
2016-Feb-05 00:33N 37°57' E 023°38'0 0.0
2016-Feb-04 23:34N 37°57' E 023°38'5 4.6
2016-Feb-04 22:34N 37°52' E 023°39'6621.9
2016-Feb-04 19:34N 37°29' E 024°57'1514.7
2016-Feb-04 18:34N 37°27' E 025°15'1111.1
2016-Feb-04 17:34N 37°31' E 025°29'168 9.3
2016-Feb-03 23:33N 40°16' E 024°45'2424.4
2016-Feb-03 22:34N 40°37' E 024°30'  
Track history (hours):
 
Tides and Currents Weather Stations Pressure Air Temp Water Temp Dewpoint Dewpoint Depression Visibility Wind Speed Wind Dir Waves Ship Positions

Nissos Mykonos

Last reported at 2016-Feb-13 22:32 UTC. Time now 2016-Feb-14 08:09 UTC.
Position N 39°59' E 024°57'.

Length 141 m; draft 5.2 m.

Type: Passenger vessel. MMSI: 240389000.

Date/timePositionNaut miles runAvg speedWind from/ knotsBaromVisibWave heightAir tempDewpointWater temp
2016-Feb-13 22:32N 39°59' E 024°57'2121.2
2016-Feb-13 21:33N 40°17' E 024°44'2221.6
2016-Feb-13 20:33N 40°36' E 024°31'2120.4
2016-Feb-13 19:33N 40°56' E 024°25'0 0.1
2016-Feb-13 18:34N 40°56' E 024°25'0 0.0
2016-Feb-13 17:34N 40°56' E 024°25'5 5.4
2016-Feb-13 16:34N 40°51' E 024°25'2221.8
2016-Feb-13 15:34N 40°30' E 024°35'2221.8
2016-Feb-13 14:33N 40°11' E 024°49'161 9.4
2016-Feb-12 21:26N 37°34' E 025°37'1517.3
2016-Feb-12 20:34N 37°28' E 025°19'1816.2
2016-Feb-12 19:26N 37°26' E 024°57'6321.8
2016-Feb-12 16:34N 37°44' E 023°41'1312.8
2016-Feb-12 15:34N 37°57' E 023°38'0 0.0
2016-Feb-12 14:33N 37°57' E 023°38'0 0.0
2016-Feb-12 13:34N 37°57' E 023°38'0 0.0
2016-Feb-12 12:34N 37°57' E 023°38'0 0.0
2016-Feb-12 11:34N 37°57' E 023°38'0 0.0
2016-Feb-12 10:34N 37°57' E 023°38'0 0.0
2016-Feb-12 09:34N 37°57' E 023°38'0 0.0
2016-Feb-12 08:34N 37°57' E 023°38'0 0.0
2016-Feb-12 07:34N 37°57' E 023°38'0 0.0
2016-Feb-12 06:34N 37°57' E 023°38'0 0.0
2016-Feb-12 05:34N 37°57' E 023°38'0 0.0
2016-Feb-12 04:34N 37°57' E 023°38'0 0.0
2016-Feb-12 03:33N 37°57' E 023°38'0 0.0
2016-Feb-12 02:34N 37°57' E 023°38'0 0.0
2016-Feb-12 01:34N 37°57' E 023°38'6 6.3
2016-Feb-12 00:34N 37°50' E 023°40'2323.1
2016-Feb-11 23:33N 37°36' E 024°03'3323.6
2016-Feb-11 22:09N 37°31' E 024°44'1114.9
2016-Feb-11 21:24N 37°26' E 024°57'1821.4
2016-Feb-11 20:34N 37°28' E 025°19'1818.1
2016-Feb-11 19:33N 37°31' E 025°42'145 9.5
2016-Feb-11 04:22N 39°52' E 025°03'1721.0
2016-Feb-11 03:33N 40°05' E 024°47'2323.6
2016-Feb-11 02:33N 40°26' E 024°34'2423.8
2016-Feb-11 01:34N 40°49' E 024°26'7 7.3
2016-Feb-11 00:33N 40°56' E 024°25'0 0.0
2016-Feb-10 23:33N 40°56' E 024°25'0 0.0
2016-Feb-10 22:04N 40°56' E 024°25'0 0.0
2016-Feb-10 21:33N 40°56' E 024°25'0 0.0
2016-Feb-10 20:34N 40°56' E 024°25'0 0.0
2016-Feb-10 19:34N 40°56' E 024°25'0 0.0
2016-Feb-10 18:30N 40°56' E 024°25'0 0.0
2016-Feb-10 17:34N 40°56' E 024°25'1616.4
2016-Feb-10 16:34N 40°40' E 024°29'2221.5
2016-Feb-10 15:34N 40°21' E 024°43'2321.5
2016-Feb-10 14:30N 40°01' E 024°56'1010.7
2016-Feb-10 13:33N 39°52' E 025°02'147 9.0
2016-Feb-09 21:05N 37°30' E 025°55'1421.6
2016-Feb-09 20:27N 37°31' E 025°38'1517.2
2016-Feb-09 19:34N 37°28' E 025°19'1212.3
2016-Feb-09 18:34N 37°27' E 025°04'1110.7
2016-Feb-09 17:33N 37°32' E 024°52'5121.2
2016-Feb-09 15:08N 37°38' E 023°48'1221.1
2016-Feb-09 14:34N 37°48' E 023°38'9 8.8
2016-Feb-09 13:34N 37°57' E 023°38'0 0.0
2016-Feb-09 12:33N 37°57' E 023°38'0 0.0
2016-Feb-09 11:33N 37°57' E 023°38'0 0.0
2016-Feb-09 10:34N 37°57' E 023°38'0 0.0
2016-Feb-09 09:34N 37°57' E 023°38'0 0.0
2016-Feb-09 08:34N 37°57' E 023°38'0 0.0
2016-Feb-09 05:34N 37°57' E 023°38'0 0.0
2016-Feb-09 04:34N 37°57' E 023°38'0 0.0
2016-Feb-09 03:34N 37°57' E 023°38'0 0.0
2016-Feb-09 02:34N 37°57' E 023°38'0 0.0
2016-Feb-09 01:34N 37°57' E 023°38'0 0.0
2016-Feb-09 00:34N 37°57' E 023°38'0 0.0
2016-Feb-08 23:33N 37°57' E 023°38'0 0.0
2016-Feb-08 22:34N 37°57' E 023°38'0 0.0
2016-Feb-08 21:33N 37°57' E 023°38'1413.9
2016-Feb-08 20:34N 37°44' E 023°44'4923.8
2016-Feb-08 18:31N 37°31' E 024°44'1211.8
2016-Feb-08 17:29N 37°26' E 024°58'1718.7
2016-Feb-08 16:33N 37°28' E 025°19'1717.2
2016-Feb-08 15:33N 37°34' E 025°40'153 8.8
2016-Feb-07 22:16N 40°02' E 024°54'1622.0
2016-Feb-07 21:34N 40°16' E 024°44'2222.1
2016-Feb-07 20:33N 40°36' E 024°31'2120.3
2016-Feb-07 19:32N 40°56' E 024°25'0 0.0
2016-Feb-07 18:33N 40°56' E 024°25'0 0.1
2016-Feb-07 17:33N 40°56' E 024°25'2423.8
2016-Feb-07 16:34N 40°33' E 024°33'2625.1
2016-Feb-07 15:32N 40°11' E 024°49'15910.5
2016-Feb-07 00:28N 37°35' E 025°32'1314.6
2016-Feb-06 23:33N 37°28' E 025°19'1716.6
2016-Feb-06 22:33N 37°27' E 024°58'5622.8
2016-Feb-06 20:05N 37°38' E 023°48'1223.5
2016-Feb-06 19:34N 37°48' E 023°38'9 8.6
2016-Feb-06 18:34N 37°57' E 023°38'0 0.0
2016-Feb-06 17:34N 37°57' E 023°38'0 0.0
2016-Feb-06 16:34N 37°57' E 023°38'0 0.0
2016-Feb-06 15:33N 37°57' E 023°38'0 0.0
2016-Feb-06 14:34N 37°57' E 023°38'0 0.0
2016-Feb-06 13:33N 37°57' E 023°38'0 0.0
2016-Feb-06 12:34N 37°57' E 023°38'0 0.0
2016-Feb-06 11:33N 37°57' E 023°38'0 0.0
2016-Feb-06 10:33N 37°57' E 023°38'0 0.0
2016-Feb-06 09:33N 37°57' E 023°38'0 0.0
2016-Feb-06 08:33N 37°57' E 023°38'0 0.0
2016-Feb-06 07:34N 37°57' E 023°38'0 0.0
2016-Feb-06 06:34N 37°57' E 023°38'0 0.0
2016-Feb-06 05:33N 37°57' E 023°38'0 0.0
2016-Feb-06 04:34N 37°57' E 023°38'0 0.0
2016-Feb-06 03:33N 37°57' E 023°38'0 0.0
2016-Feb-06 02:33N 37°57' E 023°38'0 0.0
2016-Feb-06 01:34N 37°57' E 023°38'0 0.0
2016-Feb-06 00:34N 37°57' E 023°38'0 0.0
2016-Feb-05 23:33N 37°57' E 023°38'0 0.0
2016-Feb-05 22:33N 37°57' E 023°38'0 0.0
2016-Feb-05 21:33N 37°57' E 023°38'0 0.0
2016-Feb-05 20:33N 37°57' E 023°38'0 0.0
2016-Feb-05 19:34N 37°57' E 023°38'0 0.0
2016-Feb-05 18:33N 37°57' E 023°38'0 0.0
2016-Feb-05 17:33N 37°57' E 023°38'0 0.0
2016-Feb-05 16:33N 37°57' E 023°38'0 0.0
2016-Feb-05 15:34N 37°57' E 023°38'0 0.0
2016-Feb-05 14:34N 37°57' E 023°38'0 0.0
2016-Feb-05 13:34N 37°57' E 023°38'0 0.0
2016-Feb-05 12:33N 37°57' E 023°38'0 0.0
2016-Feb-05 11:34N 37°57' E 023°38'0 0.0
2016-Feb-05 10:34N 37°57' E 023°38'0 0.0
2016-Feb-05 09:34N 37°57' E 023°38'0 0.0
2016-Feb-05 08:34N 37°57' E 023°38'0 0.0
2016-Feb-05 07:33N 37°57' E 023°38'0 0.0
2016-Feb-05 06:34N 37°57' E 023°38'0 0.0
2016-Feb-05 05:33N 37°57' E 023°38'0 0.0
2016-Feb-05 04:34N 37°57' E 023°38'0 0.0
2016-Feb-05 03:34N 37°57' E 023°38'0 0.0
2016-Feb-05 02:34N 37°57' E 023°38'0 0.0
2016-Feb-05 01:33N 37°57' E 023°38'0 0.0
2016-Feb-05 00:33N 37°57' E 023°38'0 0.0
2016-Feb-04 23:34N 37°57' E 023°38'5 4.6
2016-Feb-04 22:34N 37°52' E 023°39'6621.9
2016-Feb-04 19:34N 37°29' E 024°57'1514.7
2016-Feb-04 18:34N 37°27' E 025°15'1111.1
2016-Feb-04 17:34N 37°31' E 025°29'168 9.3
2016-Feb-03 23:33N 40°16' E 024°45'2424.4
2016-Feb-03 22:34N 40°37' E 024°30'  

Dump ship's entire track history